sensor_id;sensor_type;location;lat;lon;timestamp;temperature;humidity
64888;DHT22;51386;53.082;8.816;2024-01-15T00:01:23;3.80;94.80
64888;DHT22;51386;53.082;8.816;2024-01-15T00:03:51;3.80;94.70
64888;DHT22;51386;53.082;8.816;2024-01-15T00:06:20;3.80;94.80
64888;DHT22;51386;53.082;8.816;2024-01-15T00:08:49;3.80;94.80
64888;DHT22;51386;53.082;8.816;2024-01-15T00:11:17;3.80;94.80
64888;DHT22;51386;53.082;8.816;2024-01-15T00:13:46;3.80;94.80
64888;DHT22;51386;53.082;8.816;2024-01-15T00:16:14;3.80;94.70
64888;DHT22;51386;53.082;8.816;2024-01-15T00:18:43;3.70;95.00
64888;DHT22;51386;53.082;8.816;2024-01-15T00:21:11;3.70;94.70
64888;DHT22;51386;53.082;8.816;2024-01-15T00:23:43;3.70;94.60
64888;DHT22;51386;53.082;8.816;2024-01-15T00:26:14;3.80;94.70
64888;DHT22;51386;53.082;8.816;2024-01-15T00:28:43;3.80;94.70
64888;DHT22;51386;53.082;8.816;2024-01-15T00:31:11;3.80;94.80
64888;DHT22;51386;53.082;8.816;2024-01-15T00:33:40;3.80;94.70
64888;DHT22;51386;53.082;8.816;2024-01-15T00:36:08;3.90;94.70
64888;DHT22;51386;53.082;8.816;2024-01-15T00:38:37;3.90;94.60
64888;DHT22;51386;53.082;8.816;2024-01-15T00:41:05;4.00;94.60
64888;DHT22;51386;53.082;8.816;2024-01-15T00:43:34;4.00;94.70
64888;DHT22;51386;53.082;8.816;2024-01-15T00:46:03;4.10;94.40
64888;DHT22;51386;53.082;8.816;2024-01-15T00:48:32;4.10;94.10
64888;DHT22;51386;53.082;8.816;2024-01-15T00:51:01;4.10;94.10
64888;DHT22;51386;53.082;8.816;2024-01-15T00:53:29;4.10;93.90
64888;DHT22;51386;53.082;8.816;2024-01-15T00:55:57;4.20;93.90
64888;DHT22;51386;53.082;8.816;2024-01-15T00:58:26;4.20;93.80
64888;DHT22;51386;53.082;8.816;2024-01-15T01:00:55;4.30;93.80
64888;DHT22;51386;53.082;8.816;2024-01-15T01:03:23;4.30;93.80
64888;DHT22;51386;53.082;8.816;2024-01-15T01:05:52;4.30;93.80
64888;DHT22;51386;53.082;8.816;2024-01-15T01:08:20;4.40;93.70
64888;DHT22;51386;53.082;8.816;2024-01-15T01:10:48;4.40;93.60
64888;DHT22;51386;53.082;8.816;2024-01-15T01:13:17;4.40;93.60
64888;DHT22;51386;53.082;8.816;2024-01-15T01:15:45;4.30;93.60
64888;DHT22;51386;53.082;8.816;2024-01-15T01:18:14;4.40;93.70
64888;DHT22;51386;53.082;8.816;2024-01-15T01:20:42;4.40;93.70
64888;DHT22;51386;53.082;8.816;2024-01-15T01:23:11;4.40;93.80
64888;DHT22;51386;53.082;8.816;2024-01-15T01:25:40;4.40;93.90
64888;DHT22;51386;53.082;8.816;2024-01-15T01:28:08;4.40;93.90
64888;DHT22;51386;53.082;8.816;2024-01-15T01:30:37;4.50;94.00
64888;DHT22;51386;53.082;8.816;2024-01-15T01:33:05;4.40;94.00
64888;DHT22;51386;53.082;8.816;2024-01-15T01:35:34;4.50;94.10
64888;DHT22;51386;53.082;8.816;2024-01-15T01:38:02;4.40;94.10
64888;DHT22;51386;53.082;8.816;2024-01-15T01:40:31;4.40;94.10
64888;DHT22;51386;53.082;8.816;2024-01-15T01:42:59;4.40;94.10
64888;DHT22;51386;53.082;8.816;2024-01-15T01:45:28;4.40;94.30
64888;DHT22;51386;53.082;8.816;2024-01-15T01:47:56;4.40;94.30
64888;DHT22;51386;53.082;8.816;2024-01-15T01:50:25;4.30;94.40
64888;DHT22;51386;53.082;8.816;2024-01-15T01:52:53;4.30;94.50
64888;DHT22;51386;53.082;8.816;2024-01-15T01:55:24;4.30;94.70
64888;DHT22;51386;53.082;8.816;2024-01-15T01:57:55;4.20;94.70
64888;DHT22;51386;53.082;8.816;2024-01-15T02:00:24;4.20;94.70
64888;DHT22;51386;53.082;8.816;2024-01-15T02:02:53;4.20;94.80
64888;DHT22;51386;53.082;8.816;2024-01-15T02:05:22;4.20;95.00
64888;DHT22;51386;53.082;8.816;2024-01-15T02:07:50;4.20;95.10
64888;DHT22;51386;53.082;8.816;2024-01-15T02:10:19;4.20;95.20
64888;DHT22;51386;53.082;8.816;2024-01-15T02:12:47;4.20;95.20
64888;DHT22;51386;53.082;8.816;2024-01-15T02:15:16;4.20;95.10
64888;DHT22;51386;53.082;8.816;2024-01-15T02:17:58;4.20;95.10
64888;DHT22;51386;53.082;8.816;2024-01-15T02:20:35;4.10;95.10
64888;DHT22;51386;53.082;8.816;2024-01-15T02:25:46;4.10;95.40
64888;DHT22;51386;53.082;8.816;2024-01-15T02:28:16;4.10;95.50
64888;DHT22;51386;53.082;8.816;2024-01-15T02:30:45;4.10;95.60
64888;DHT22;51386;53.082;8.816;2024-01-15T02:33:14;4.10;95.60
64888;DHT22;51386;53.082;8.816;2024-01-15T02:35:42;4.20;95.60
64888;DHT22;51386;53.082;8.816;2024-01-15T02:38:11;4.20;95.60
64888;DHT22;51386;53.082;8.816;2024-01-15T02:40:39;4.20;95.50
64888;DHT22;51386;53.082;8.816;2024-01-15T02:43:07;4.20;95.80
64888;DHT22;51386;53.082;8.816;2024-01-15T02:45:36;4.30;95.50
64888;DHT22;51386;53.082;8.816;2024-01-15T02:48:05;4.30;95.40
64888;DHT22;51386;53.082;8.816;2024-01-15T02:50:34;4.30;95.40
64888;DHT22;51386;53.082;8.816;2024-01-15T02:53:02;4.30;95.30
64888;DHT22;51386;53.082;8.816;2024-01-15T02:55:31;4.40;95.40
64888;DHT22;51386;53.082;8.816;2024-01-15T02:58:00;4.40;95.30
64888;DHT22;51386;53.082;8.816;2024-01-15T03:00:28;4.40;95.30
64888;DHT22;51386;53.082;8.816;2024-01-15T03:02:56;4.40;95.30
64888;DHT22;51386;53.082;8.816;2024-01-15T03:05:25;4.40;95.20
64888;DHT22;51386;53.082;8.816;2024-01-15T03:07:53;4.40;95.10
64888;DHT22;51386;53.082;8.816;2024-01-15T03:10:21;4.40;95.10
64888;DHT22;51386;53.082;8.816;2024-01-15T03:12:50;4.40;95.10
64888;DHT22;51386;53.082;8.816;2024-01-15T03:15:18;4.40;95.00
64888;DHT22;51386;53.082;8.816;2024-01-15T03:17:47;4.40;95.20
64888;DHT22;51386;53.082;8.816;2024-01-15T03:20:15;4.40;94.90
64888;DHT22;51386;53.082;8.816;2024-01-15T03:22:56;4.30;94.90
64888;DHT22;51386;53.082;8.816;2024-01-15T03:25:24;4.30;94.90
64888;DHT22;51386;53.082;8.816;2024-01-15T03:27:53;4.20;94.90
64888;DHT22;51386;53.082;8.816;2024-01-15T03:30:21;4.20;94.90
64888;DHT22;51386;53.082;8.816;2024-01-15T03:32:50;4.10;95.00
64888;DHT22;51386;53.082;8.816;2024-01-15T03:35:18;4.10;95.10
64888;DHT22;51386;53.082;8.816;2024-01-15T03:37:47;4.10;95.20
64888;DHT22;51386;53.082;8.816;2024-01-15T03:40:15;4.10;95.60
64888;DHT22;51386;53.082;8.816;2024-01-15T03:42:48;4.10;95.20
64888;DHT22;51386;53.082;8.816;2024-01-15T03:45:17;4.10;95.30
64888;DHT22;51386;53.082;8.816;2024-01-15T03:47:45;4.00;95.20
64888;DHT22;51386;53.082;8.816;2024-01-15T03:50:14;4.00;95.30
64888;DHT22;51386;53.082;8.816;2024-01-15T03:52:42;4.00;95.40
64888;DHT22;51386;53.082;8.816;2024-01-15T03:55:10;4.00;95.40
64888;DHT22;51386;53.082;8.816;2024-01-15T03:57:39;4.00;95.50
64888;DHT22;51386;53.082;8.816;2024-01-15T04:00:07;4.00;95.50
64888;DHT22;51386;53.082;8.816;2024-01-15T04:02:36;4.00;95.50
64888;DHT22;51386;53.082;8.816;2024-01-15T04:05:05;4.00;95.50
64888;DHT22;51386;53.082;8.816;2024-01-15T04:07:34;4.00;95.50
64888;DHT22;51386;53.082;8.816;2024-01-15T04:10:02;4.00;95.50
64888;DHT22;51386;53.082;8.816;2024-01-15T04:12:31;4.00;95.60
64888;DHT22;51386;53.082;8.816;2024-01-15T04:14:59;4.00;95.50
64888;DHT22;51386;53.082;8.816;2024-01-15T04:17:27;4.00;95.60
64888;DHT22;51386;53.082;8.816;2024-01-15T04:19:56;4.00;95.50
64888;DHT22;51386;53.082;8.816;2024-01-15T04:22:26;4.00;95.60
64888;DHT22;51386;53.082;8.816;2024-01-15T04:24:54;4.00;95.70
64888;DHT22;51386;53.082;8.816;2024-01-15T04:27:23;4.10;95.80
64888;DHT22;51386;53.082;8.816;2024-01-15T04:29:52;4.10;95.80
64888;DHT22;51386;53.082;8.816;2024-01-15T04:32:21;4.10;95.70
64888;DHT22;51386;53.082;8.816;2024-01-15T04:34:49;4.20;95.60
64888;DHT22;51386;53.082;8.816;2024-01-15T04:37:17;4.20;95.60
64888;DHT22;51386;53.082;8.816;2024-01-15T04:39:46;4.30;95.60
64888;DHT22;51386;53.082;8.816;2024-01-15T04:42:14;4.20;95.40
64888;DHT22;51386;53.082;8.816;2024-01-15T04:44:43;4.30;95.40
64888;DHT22;51386;53.082;8.816;2024-01-15T04:47:11;4.30;95.40
64888;DHT22;51386;53.082;8.816;2024-01-15T04:49:39;4.30;95.30
64888;DHT22;51386;53.082;8.816;2024-01-15T04:52:08;4.30;95.30
64888;DHT22;51386;53.082;8.816;2024-01-15T04:54:38;4.40;95.40
64888;DHT22;51386;53.082;8.816;2024-01-15T04:57:06;4.40;95.30
64888;DHT22;51386;53.082;8.816;2024-01-15T04:59:35;4.40;95.20
64888;DHT22;51386;53.082;8.816;2024-01-15T05:02:03;4.40;95.20
64888;DHT22;51386;53.082;8.816;2024-01-15T05:04:31;4.30;95.10
64888;DHT22;51386;53.082;8.816;2024-01-15T05:07:01;4.40;95.10
64888;DHT22;51386;53.082;8.816;2024-01-15T05:09:29;4.30;95.00
64888;DHT22;51386;53.082;8.816;2024-01-15T05:11:59;4.30;95.10
64888;DHT22;51386;53.082;8.816;2024-01-15T05:14:27;4.20;95.10
64888;DHT22;51386;53.082;8.816;2024-01-15T05:16:55;4.20;95.10
64888;DHT22;51386;53.082;8.816;2024-01-15T05:19:24;4.20;95.10
64888;DHT22;51386;53.082;8.816;2024-01-15T05:21:52;4.20;95.20
64888;DHT22;51386;53.082;8.816;2024-01-15T05:24:21;4.10;95.20
64888;DHT22;51386;53.082;8.816;2024-01-15T05:26:49;4.10;95.40
64888;DHT22;51386;53.082;8.816;2024-01-15T05:29:17;4.10;95.50
64888;DHT22;51386;53.082;8.816;2024-01-15T05:31:46;4.10;95.50
64888;DHT22;51386;53.082;8.816;2024-01-15T05:34:15;4.10;95.60
64888;DHT22;51386;53.082;8.816;2024-01-15T05:36:43;4.10;95.60
64888;DHT22;51386;53.082;8.816;2024-01-15T05:39:12;4.10;95.50
64888;DHT22;51386;53.082;8.816;2024-01-15T05:41:40;4.10;95.90
64888;DHT22;51386;53.082;8.816;2024-01-15T05:44:08;4.10;95.70
64888;DHT22;51386;53.082;8.816;2024-01-15T05:46:37;4.10;95.60
64888;DHT22;51386;53.082;8.816;2024-01-15T05:49:06;4.10;95.60
64888;DHT22;51386;53.082;8.816;2024-01-15T05:51:34;4.10;95.60
64888;DHT22;51386;53.082;8.816;2024-01-15T05:54:03;4.10;95.60
64888;DHT22;51386;53.082;8.816;2024-01-15T05:56:32;4.10;95.60
64888;DHT22;51386;53.082;8.816;2024-01-15T05:59:00;4.10;95.60
64888;DHT22;51386;53.082;8.816;2024-01-15T06:01:29;4.20;95.80
64888;DHT22;51386;53.082;8.816;2024-01-15T06:03:58;4.20;95.60
64888;DHT22;51386;53.082;8.816;2024-01-15T06:06:26;4.20;95.60
64888;DHT22;51386;53.082;8.816;2024-01-15T06:08:55;4.20;95.60
64888;DHT22;51386;53.082;8.816;2024-01-15T06:11:29;4.20;95.60
64888;DHT22;51386;53.082;8.816;2024-01-15T06:13:58;4.30;95.60
64888;DHT22;51386;53.082;8.816;2024-01-15T06:16:28;4.30;95.60
64888;DHT22;51386;53.082;8.816;2024-01-15T06:18:57;4.30;95.50
64888;DHT22;51386;53.082;8.816;2024-01-15T06:21:25;4.40;95.40
64888;DHT22;51386;53.082;8.816;2024-01-15T06:23:54;4.40;95.40
64888;DHT22;51386;53.082;8.816;2024-01-15T06:26:24;4.40;95.40
64888;DHT22;51386;53.082;8.816;2024-01-15T06:28:52;4.40;95.30
64888;DHT22;51386;53.082;8.816;2024-01-15T06:31:21;4.40;95.40
64888;DHT22;51386;53.082;8.816;2024-01-15T06:33:49;4.30;95.30
64888;DHT22;51386;53.082;8.816;2024-01-15T06:36:18;4.40;95.30
64888;DHT22;51386;53.082;8.816;2024-01-15T06:38:46;4.40;95.40
64888;DHT22;51386;53.082;8.816;2024-01-15T06:41:15;4.30;95.20
64888;DHT22;51386;53.082;8.816;2024-01-15T06:43:43;4.30;95.30
64888;DHT22;51386;53.082;8.816;2024-01-15T06:46:12;4.30;95.40
64888;DHT22;51386;53.082;8.816;2024-01-15T06:48:42;4.30;95.50
64888;DHT22;51386;53.082;8.816;2024-01-15T06:51:10;4.30;95.50
64888;DHT22;51386;53.082;8.816;2024-01-15T06:53:39;4.30;95.50
64888;DHT22;51386;53.082;8.816;2024-01-15T06:56:07;4.40;95.60
64888;DHT22;51386;53.082;8.816;2024-01-15T06:58:36;4.40;95.60
64888;DHT22;51386;53.082;8.816;2024-01-15T07:01:04;4.40;95.60
64888;DHT22;51386;53.082;8.816;2024-01-15T07:03:33;4.40;95.50
64888;DHT22;51386;53.082;8.816;2024-01-15T07:06:02;4.40;95.40
64888;DHT22;51386;53.082;8.816;2024-01-15T07:08:30;4.40;95.50
64888;DHT22;51386;53.082;8.816;2024-01-15T07:10:59;4.40;95.50
64888;DHT22;51386;53.082;8.816;2024-01-15T07:13:27;4.40;95.40
64888;DHT22;51386;53.082;8.816;2024-01-15T07:15:56;4.40;95.40
64888;DHT22;51386;53.082;8.816;2024-01-15T07:18:25;4.40;95.40
64888;DHT22;51386;53.082;8.816;2024-01-15T07:20:54;4.30;95.20
64888;DHT22;51386;53.082;8.816;2024-01-15T07:23:22;4.30;95.20
64888;DHT22;51386;53.082;8.816;2024-01-15T07:25:53;4.30;95.30
64888;DHT22;51386;53.082;8.816;2024-01-15T07:28:21;4.20;95.30
64888;DHT22;51386;53.082;8.816;2024-01-15T07:30:50;4.20;95.30
64888;DHT22;51386;53.082;8.816;2024-01-15T07:33:19;4.10;95.20
64888;DHT22;51386;53.082;8.816;2024-01-15T07:35:47;4.10;95.30
64888;DHT22;51386;53.082;8.816;2024-01-15T07:38:15;4.10;95.50
64888;DHT22;51386;53.082;8.816;2024-01-15T07:40:44;4.00;95.40
64888;DHT22;51386;53.082;8.816;2024-01-15T07:43:12;4.00;95.50
64888;DHT22;51386;53.082;8.816;2024-01-15T07:45:41;4.00;95.50
64888;DHT22;51386;53.082;8.816;2024-01-15T07:48:11;4.00;95.50
64888;DHT22;51386;53.082;8.816;2024-01-15T07:50:40;3.90;95.60
64888;DHT22;51386;53.082;8.816;2024-01-15T07:53:08;3.90;95.70
64888;DHT22;51386;53.082;8.816;2024-01-15T07:55:37;3.90;95.80
64888;DHT22;51386;53.082;8.816;2024-01-15T07:58:05;3.90;96.00
64888;DHT22;51386;53.082;8.816;2024-01-15T08:00:42;3.90;96.10
64888;DHT22;51386;53.082;8.816;2024-01-15T08:03:11;4.00;96.30
64888;DHT22;51386;53.082;8.816;2024-01-15T08:05:40;4.00;96.20
64888;DHT22;51386;53.082;8.816;2024-01-15T08:08:09;4.00;96.20
64888;DHT22;51386;53.082;8.816;2024-01-15T08:10:37;4.00;96.20
64888;DHT22;51386;53.082;8.816;2024-01-15T08:13:06;4.10;96.20
64888;DHT22;51386;53.082;8.816;2024-01-15T08:15:36;4.10;96.00
64888;DHT22;51386;53.082;8.816;2024-01-15T08:18:04;4.20;96.00
64888;DHT22;51386;53.082;8.816;2024-01-15T08:20:33;4.20;95.80
64888;DHT22;51386;53.082;8.816;2024-01-15T08:23:02;4.20;95.60
64888;DHT22;51386;53.082;8.816;2024-01-15T08:25:31;4.20;95.50
64888;DHT22;51386;53.082;8.816;2024-01-15T08:27:59;4.20;95.50
64888;DHT22;51386;53.082;8.816;2024-01-15T08:30:27;4.20;95.40
64888;DHT22;51386;53.082;8.816;2024-01-15T08:32:56;4.20;95.10
64888;DHT22;51386;53.082;8.816;2024-01-15T08:35:34;4.20;95.20
64888;DHT22;51386;53.082;8.816;2024-01-15T08:38:03;4.20;95.10
64888;DHT22;51386;53.082;8.816;2024-01-15T08:40:31;4.20;95.00
64888;DHT22;51386;53.082;8.816;2024-01-15T08:42:59;4.20;95.00
64888;DHT22;51386;53.082;8.816;2024-01-15T08:45:29;4.20;95.10
64888;DHT22;51386;53.082;8.816;2024-01-15T08:47:58;4.20;95.10
64888;DHT22;51386;53.082;8.816;2024-01-15T08:50:27;4.10;95.10
64888;DHT22;51386;53.082;8.816;2024-01-15T08:52:58;4.10;95.50
64888;DHT22;51386;53.082;8.816;2024-01-15T08:55:27;4.20;95.10
64888;DHT22;51386;53.082;8.816;2024-01-15T08:57:55;4.20;95.10
64888;DHT22;51386;53.082;8.816;2024-01-15T09:00:23;4.20;95.20
64888;DHT22;51386;53.082;8.816;2024-01-15T09:02:52;4.20;95.20
64888;DHT22;51386;53.082;8.816;2024-01-15T09:05:20;4.30;95.20
64888;DHT22;51386;53.082;8.816;2024-01-15T09:07:49;4.30;95.00
64888;DHT22;51386;53.082;8.816;2024-01-15T09:10:19;4.40;95.00
64888;DHT22;51386;53.082;8.816;2024-01-15T09:12:48;4.40;94.90
64888;DHT22;51386;53.082;8.816;2024-01-15T09:15:20;4.40;94.80
64888;DHT22;51386;53.082;8.816;2024-01-15T09:17:48;4.40;94.80
64888;DHT22;51386;53.082;8.816;2024-01-15T09:20:16;4.50;94.80
64888;DHT22;51386;53.082;8.816;2024-01-15T09:22:46;4.50;94.70
64888;DHT22;51386;53.082;8.816;2024-01-15T09:25:14;4.50;94.40
64888;DHT22;51386;53.082;8.816;2024-01-15T09:27:43;4.50;94.30
64888;DHT22;51386;53.082;8.816;2024-01-15T09:30:13;4.60;94.50
64888;DHT22;51386;53.082;8.816;2024-01-15T09:32:42;4.60;94.40
64888;DHT22;51386;53.082;8.816;2024-01-15T09:35:10;4.60;94.40
64888;DHT22;51386;53.082;8.816;2024-01-15T09:37:39;4.60;94.40
64888;DHT22;51386;53.082;8.816;2024-01-15T09:40:15;4.70;94.50
64888;DHT22;51386;53.082;8.816;2024-01-15T09:42:45;4.70;94.40
64888;DHT22;51386;53.082;8.816;2024-01-15T09:45:14;4.70;94.20
64888;DHT22;51386;53.082;8.816;2024-01-15T09:47:43;4.70;94.30
64888;DHT22;51386;53.082;8.816;2024-01-15T09:50:13;4.70;94.30
64888;DHT22;51386;53.082;8.816;2024-01-15T09:52:44;4.70;94.40
64888;DHT22;51386;53.082;8.816;2024-01-15T09:55:13;4.70;94.50
64888;DHT22;51386;53.082;8.816;2024-01-15T09:57:44;4.60;94.60
64888;DHT22;51386;53.082;8.816;2024-01-15T10:00:15;4.60;94.70
64888;DHT22;51386;53.082;8.816;2024-01-15T10:02:56;4.60;94.80
64888;DHT22;51386;53.082;8.816;2024-01-15T10:05:24;4.70;94.80
64888;DHT22;51386;53.082;8.816;2024-01-15T10:07:54;4.70;94.70
64888;DHT22;51386;53.082;8.816;2024-01-15T10:10:25;4.70;94.80
64888;DHT22;51386;53.082;8.816;2024-01-15T10:12:54;4.70;94.80
64888;DHT22;51386;53.082;8.816;2024-01-15T10:15:23;4.70;94.70
64888;DHT22;51386;53.082;8.816;2024-01-15T10:17:52;4.70;94.70
64888;DHT22;51386;53.082;8.816;2024-01-15T10:20:20;4.80;94.60
64888;DHT22;51386;53.082;8.816;2024-01-15T10:22:51;4.70;94.50
64888;DHT22;51386;53.082;8.816;2024-01-15T10:25:20;4.80;94.50
64888;DHT22;51386;53.082;8.816;2024-01-15T10:28:01;4.80;94.50
64888;DHT22;51386;53.082;8.816;2024-01-15T10:30:32;4.80;94.40
64888;DHT22;51386;53.082;8.816;2024-01-15T10:33:03;4.80;94.30
64888;DHT22;51386;53.082;8.816;2024-01-15T10:35:34;4.80;94.40
64888;DHT22;51386;53.082;8.816;2024-01-15T10:38:03;4.80;94.30
64888;DHT22;51386;53.082;8.816;2024-01-15T10:40:33;4.80;94.30
64888;DHT22;51386;53.082;8.816;2024-01-15T10:43:02;4.80;94.30
64888;DHT22;51386;53.082;8.816;2024-01-15T10:45:31;4.90;94.40
64888;DHT22;51386;53.082;8.816;2024-01-15T10:47:59;4.90;94.40
64888;DHT22;51386;53.082;8.816;2024-01-15T10:50:32;5.00;94.40
64888;DHT22;51386;53.082;8.816;2024-01-15T10:53:00;4.90;94.20
64888;DHT22;51386;53.082;8.816;2024-01-15T10:55:31;5.00;94.30
64888;DHT22;51386;53.082;8.816;2024-01-15T10:58:02;5.00;94.30
64888;DHT22;51386;53.082;8.816;2024-01-15T11:00:31;5.10;94.40
64888;DHT22;51386;53.082;8.816;2024-01-15T11:03:01;5.10;94.30
64888;DHT22;51386;53.082;8.816;2024-01-15T11:05:58;5.10;94.30
64888;DHT22;51386;53.082;8.816;2024-01-15T11:08:27;5.10;94.10
64888;DHT22;51386;53.082;8.816;2024-01-15T11:10:57;5.10;94.00
64888;DHT22;51386;53.082;8.816;2024-01-15T11:16:01;5.00;94.00
64888;DHT22;51386;53.082;8.816;2024-01-15T11:18:37;4.90;94.10
64888;DHT22;51386;53.082;8.816;2024-01-15T11:24:01;4.90;94.10
64888;DHT22;51386;53.082;8.816;2024-01-15T11:26:45;4.90;94.20
64888;DHT22;51386;53.082;8.816;2024-01-15T11:32:03;5.00;94.50
64888;DHT22;51386;53.082;8.816;2024-01-15T11:34:59;5.00;94.50
64888;DHT22;51386;53.082;8.816;2024-01-15T11:43:02;5.30;94.30
64888;DHT22;51386;53.082;8.816;2024-01-15T11:45:32;5.40;94.20
64888;DHT22;51386;53.082;8.816;2024-01-15T11:48:15;5.50;94.10
64888;DHT22;51386;53.082;8.816;2024-01-15T11:50:47;5.60;93.80
64888;DHT22;51386;53.082;8.816;2024-01-15T11:53:32;5.60;93.50
64888;DHT22;51386;53.082;8.816;2024-01-15T11:56:16;5.70;93.10
64888;DHT22;51386;53.082;8.816;2024-01-15T11:58:45;5.70;93.10
64888;DHT22;51386;53.082;8.816;2024-01-15T12:01:14;5.70;93.20
64888;DHT22;51386;53.082;8.816;2024-01-15T12:03:44;5.70;93.00
64888;DHT22;51386;53.082;8.816;2024-01-15T12:06:15;5.80;93.10
64888;DHT22;51386;53.082;8.816;2024-01-15T12:08:43;5.80;93.20
64888;DHT22;51386;53.082;8.816;2024-01-15T12:11:13;5.80;93.00
64888;DHT22;51386;53.082;8.816;2024-01-15T12:13:45;5.90;92.90
64888;DHT22;51386;53.082;8.816;2024-01-15T12:16:14;5.90;92.70
64888;DHT22;51386;53.082;8.816;2024-01-15T12:18:43;5.90;92.50
64888;DHT22;51386;53.082;8.816;2024-01-15T12:21:12;5.90;92.50
64888;DHT22;51386;53.082;8.816;2024-01-15T12:23:40;6.00;92.60
64888;DHT22;51386;53.082;8.816;2024-01-15T12:26:09;6.00;92.60
64888;DHT22;51386;53.082;8.816;2024-01-15T12:28:38;6.10;92.50
64888;DHT22;51386;53.082;8.816;2024-01-15T12:31:07;6.20;92.50
64888;DHT22;51386;53.082;8.816;2024-01-15T12:33:35;6.20;92.40
64888;DHT22;51386;53.082;8.816;2024-01-15T12:36:04;6.30;92.40
64888;DHT22;51386;53.082;8.816;2024-01-15T12:38:33;6.40;92.20
64888;DHT22;51386;53.082;8.816;2024-01-15T12:41:01;6.40;92.10
64888;DHT22;51386;53.082;8.816;2024-01-15T12:43:30;6.50;92.20
64888;DHT22;51386;53.082;8.816;2024-01-15T12:45:59;6.50;91.90
64888;DHT22;51386;53.082;8.816;2024-01-15T12:48:28;6.50;91.50
64888;DHT22;51386;53.082;8.816;2024-01-15T12:50:56;6.50;91.50
64888;DHT22;51386;53.082;8.816;2024-01-15T12:53:24;6.40;91.40
64888;DHT22;51386;53.082;8.816;2024-01-15T12:55:53;6.30;91.40
64888;DHT22;51386;53.082;8.816;2024-01-15T12:58:21;6.30;91.50
64888;DHT22;51386;53.082;8.816;2024-01-15T13:00:50;6.20;91.70
64888;DHT22;51386;53.082;8.816;2024-01-15T13:03:19;6.10;91.70
64888;DHT22;51386;53.082;8.816;2024-01-15T13:05:48;6.00;91.90
64888;DHT22;51386;53.082;8.816;2024-01-15T13:08:17;5.90;92.00
64888;DHT22;51386;53.082;8.816;2024-01-15T13:10:45;5.80;92.20
64888;DHT22;51386;53.082;8.816;2024-01-15T13:13:14;5.80;92.30
64888;DHT22;51386;53.082;8.816;2024-01-15T13:15:42;5.60;92.20
64888;DHT22;51386;53.082;8.816;2024-01-15T13:18:11;5.60;92.50
64888;DHT22;51386;53.082;8.816;2024-01-15T13:20:41;5.50;92.90
64888;DHT22;51386;53.082;8.816;2024-01-15T13:23:09;5.50;92.90
64888;DHT22;51386;53.082;8.816;2024-01-15T13:25:39;5.40;93.00
64888;DHT22;51386;53.082;8.816;2024-01-15T13:28:07;5.30;93.10
64888;DHT22;51386;53.082;8.816;2024-01-15T13:30:36;5.30;93.10
64888;DHT22;51386;53.082;8.816;2024-01-15T13:33:05;5.20;93.20
64888;DHT22;51386;53.082;8.816;2024-01-15T13:35:34;5.10;93.10
64888;DHT22;51386;53.082;8.816;2024-01-15T13:38:04;5.10;93.20
64888;DHT22;51386;53.082;8.816;2024-01-15T13:40:32;5.00;93.30
64888;DHT22;51386;53.082;8.816;2024-01-15T13:43:01;4.90;93.40
64888;DHT22;51386;53.082;8.816;2024-01-15T13:45:29;4.90;93.50
64888;DHT22;51386;53.082;8.816;2024-01-15T13:47:58;4.80;93.70
64888;DHT22;51386;53.082;8.816;2024-01-15T13:50:26;4.70;93.80
64888;DHT22;51386;53.082;8.816;2024-01-15T13:52:55;4.70;94.00
64888;DHT22;51386;53.082;8.816;2024-01-15T13:55:23;4.70;94.20
64888;DHT22;51386;53.082;8.816;2024-01-15T13:57:52;4.70;94.20
64888;DHT22;51386;53.082;8.816;2024-01-15T14:00:21;4.70;94.30
64888;DHT22;51386;53.082;8.816;2024-01-15T14:02:51;4.70;94.40
64888;DHT22;51386;53.082;8.816;2024-01-15T14:05:19;4.60;94.50
64888;DHT22;51386;53.082;8.816;2024-01-15T14:07:48;4.70;94.60
64888;DHT22;51386;53.082;8.816;2024-01-15T14:10:17;4.70;94.70
64888;DHT22;51386;53.082;8.816;2024-01-15T14:12:46;4.70;94.70
64888;DHT22;51386;53.082;8.816;2024-01-15T14:15:14;4.70;94.70
64888;DHT22;51386;53.082;8.816;2024-01-15T14:17:42;4.70;94.70
64888;DHT22;51386;53.082;8.816;2024-01-15T14:20:11;4.70;94.70
64888;DHT22;51386;53.082;8.816;2024-01-15T14:22:41;4.70;94.90
64888;DHT22;51386;53.082;8.816;2024-01-15T14:25:09;4.80;95.10
64888;DHT22;51386;53.082;8.816;2024-01-15T14:27:37;4.80;95.20
64888;DHT22;51386;53.082;8.816;2024-01-15T14:30:07;4.80;95.10
64888;DHT22;51386;53.082;8.816;2024-01-15T14:32:36;4.90;95.00
64888;DHT22;51386;53.082;8.816;2024-01-15T14:35:08;4.90;95.10
64888;DHT22;51386;53.082;8.816;2024-01-15T14:37:41;5.00;95.20
64888;DHT22;51386;53.082;8.816;2024-01-15T14:40:09;5.00;94.90
64888;DHT22;51386;53.082;8.816;2024-01-15T14:42:40;5.00;94.60
64888;DHT22;51386;53.082;8.816;2024-01-15T14:45:09;5.00;94.50
64888;DHT22;51386;53.082;8.816;2024-01-15T14:47:40;4.90;94.50
64888;DHT22;51386;53.082;8.816;2024-01-15T14:50:09;5.00;94.50
64888;DHT22;51386;53.082;8.816;2024-01-15T14:52:38;4.90;94.50
64888;DHT22;51386;53.082;8.816;2024-01-15T14:55:08;4.90;94.70
64888;DHT22;51386;53.082;8.816;2024-01-15T14:57:39;4.90;94.80
64888;DHT22;51386;53.082;8.816;2024-01-15T15:00:08;4.90;94.90
64888;DHT22;51386;53.082;8.816;2024-01-15T15:02:37;4.90;94.90
64888;DHT22;51386;53.082;8.816;2024-01-15T15:05:06;4.90;94.70
64888;DHT22;51386;53.082;8.816;2024-01-15T15:07:35;4.80;94.70
64888;DHT22;51386;53.082;8.816;2024-01-15T15:10:04;4.80;94.60
64888;DHT22;51386;53.082;8.816;2024-01-15T15:12:34;4.80;94.60
64888;DHT22;51386;53.082;8.816;2024-01-15T15:15:03;4.90;94.70
64888;DHT22;51386;53.082;8.816;2024-01-15T15:17:37;4.80;94.60
64888;DHT22;51386;53.082;8.816;2024-01-15T15:20:06;4.80;94.60
64888;DHT22;51386;53.082;8.816;2024-01-15T15:22:36;4.80;94.40
64888;DHT22;51386;53.082;8.816;2024-01-15T15:25:04;4.70;94.40
64888;DHT22;51386;53.082;8.816;2024-01-15T15:27:36;4.70;94.50
64888;DHT22;51386;53.082;8.816;2024-01-15T15:30:06;4.70;94.60
64888;DHT22;51386;53.082;8.816;2024-01-15T15:32:35;4.60;94.60
64888;DHT22;51386;53.082;8.816;2024-01-15T15:35:04;4.60;94.70
64888;DHT22;51386;53.082;8.816;2024-01-15T15:37:33;4.60;95.10
64888;DHT22;51386;53.082;8.816;2024-01-15T15:40:02;4.60;94.80
64888;DHT22;51386;53.082;8.816;2024-01-15T15:42:36;4.60;95.00
64888;DHT22;51386;53.082;8.816;2024-01-15T15:45:05;4.60;95.10
64888;DHT22;51386;53.082;8.816;2024-01-15T15:47:34;4.60;95.10
64888;DHT22;51386;53.082;8.816;2024-01-15T15:50:03;4.60;95.10
64888;DHT22;51386;53.082;8.816;2024-01-15T15:52:32;4.60;95.10
64888;DHT22;51386;53.082;8.816;2024-01-15T15:55:01;4.60;95.10
64888;DHT22;51386;53.082;8.816;2024-01-15T15:57:30;4.60;95.10
64888;DHT22;51386;53.082;8.816;2024-01-15T16:00:01;4.60;95.10
64888;DHT22;51386;53.082;8.816;2024-01-15T16:02:29;4.50;95.00
64888;DHT22;51386;53.082;8.816;2024-01-15T16:05:01;4.50;95.00
64888;DHT22;51386;53.082;8.816;2024-01-15T16:07:32;4.50;95.00
64888;DHT22;51386;53.082;8.816;2024-01-15T16:10:01;4.40;95.30
64888;DHT22;51386;53.082;8.816;2024-01-15T16:12:29;4.40;95.30
64888;DHT22;51386;53.082;8.816;2024-01-15T16:15:00;4.40;95.20